createdAt,value
2018-10-12T00:04:30.879Z,11.20
2018-10-12T00:09:25.014Z,10.30
2018-10-12T00:14:18.763Z,11.90
2018-10-12T00:19:12.441Z,5.78
2018-10-12T00:24:05.848Z,11.12
2018-10-12T00:28:59.303Z,13.22
2018-10-12T00:33:52.932Z,10.23
2018-10-12T00:38:50.066Z,10.55
2018-10-12T00:43:44.251Z,7.75
2018-10-12T00:48:37.871Z,10.88
2018-10-12T00:53:32.142Z,10.48
2018-10-12T00:58:26.311Z,9.38
2018-10-12T01:03:21.064Z,9.20
2018-10-12T01:08:14.687Z,9.85
2018-10-12T01:13:08.248Z,9.48
2018-10-12T01:18:02.026Z,6.10
2018-10-12T01:22:56.739Z,7.80
2018-10-12T01:27:50.718Z,5.37
2018-10-12T01:32:49.621Z,7.90
2018-10-12T01:37:43.550Z,8.75
2018-10-12T01:42:36.797Z,8.83
2018-10-12T01:47:30.179Z,7.50
2018-10-12T01:52:23.617Z,9.00
2018-10-12T01:57:18.191Z,7.58
2018-10-12T02:02:11.848Z,7.10
2018-10-12T02:07:05.818Z,8.90
2018-10-12T02:11:59.176Z,7.87
2018-10-12T02:16:52.731Z,10.45
2018-10-12T02:21:46.291Z,8.68
2018-10-12T02:26:39.609Z,8.50
2018-10-12T02:31:35.777Z,11.48
2018-10-12T02:36:30.136Z,11.97
2018-10-12T02:41:24.745Z,12.23
2018-10-12T02:46:18.743Z,11.10
2018-10-12T02:51:12.709Z,13.55
2018-10-12T02:56:06.836Z,11.75
2018-10-12T03:01:00.268Z,11.48
2018-10-12T03:05:54.117Z,13.00
2018-10-12T03:10:47.539Z,12.43
2018-10-12T03:15:40.916Z,13.93
2018-10-12T03:20:34.353Z,9.58
2018-10-12T03:25:28.173Z,13.68
2018-10-12T03:30:23.572Z,11.03
2018-10-12T03:35:18.933Z,11.88
2018-10-12T03:40:14.200Z,13.35
2018-10-12T03:45:08.506Z,12.73
2018-10-12T03:50:02.480Z,13.55
2018-10-12T03:55:00.413Z,7.83
2018-10-12T03:59:54.813Z,10.05
2018-10-12T04:04:48.235Z,13.65
2018-10-12T04:09:42.174Z,12.35
2018-10-12T04:14:35.696Z,10.45
2018-10-12T04:19:30.915Z,12.65
2018-10-12T04:24:25.034Z,13.22
2018-10-12T04:34:25.297Z,11.40
2018-10-12T04:39:29.744Z,13.28
2018-10-12T04:44:24.186Z,12.45
2018-10-12T04:49:17.908Z,11.85
2018-10-12T04:54:12.588Z,13.43
2018-10-12T04:59:06.128Z,12.60
2018-10-12T05:03:59.596Z,15.53
2018-10-12T05:08:53.028Z,14.95
2018-10-12T05:13:46.427Z,13.98
2018-10-12T05:18:40.268Z,13.62
2018-10-12T05:23:34.247Z,14.58
2018-10-12T05:28:28.499Z,15.05
2018-10-12T05:33:21.978Z,14.07
2018-10-12T05:38:15.422Z,13.80
2018-10-12T05:43:09.177Z,14.30
2018-10-12T05:48:13.701Z,13.45
2018-10-12T05:53:07.609Z,12.23
2018-10-12T05:58:01.616Z,12.43
2018-10-12T06:02:55.862Z,11.43
2018-10-12T06:07:49.893Z,11.15
2018-10-12T06:12:43.352Z,11.03
2018-10-12T06:17:37.244Z,11.08
2018-10-12T06:22:30.536Z,11.25
2018-10-12T06:27:24.510Z,10.38
2018-10-12T06:32:17.751Z,9.60
2018-10-12T06:37:11.117Z,10.43
2018-10-12T06:42:05.065Z,11.50
2018-10-12T06:46:58.308Z,10.53
2018-10-12T06:51:51.595Z,11.12
2018-10-12T06:56:46.740Z,9.25
2018-10-12T07:01:40.076Z,8.93
2018-10-12T07:06:33.793Z,8.68
2018-10-12T07:11:27.085Z,9.43
2018-10-12T07:16:20.432Z,9.58
2018-10-12T07:21:13.667Z,8.45
2018-10-12T07:26:06.971Z,9.75
2018-10-12T07:31:00.375Z,9.63
2018-10-12T07:35:53.743Z,9.93
2018-10-12T07:40:47.586Z,9.30
2018-10-12T07:45:40.757Z,9.75
2018-10-12T07:50:34.288Z,8.18
2018-10-12T07:55:27.427Z,8.58
2018-10-12T08:00:20.882Z,9.63
2018-10-12T08:05:14.015Z,9.13
2018-10-12T08:10:07.691Z,9.00
2018-10-12T08:15:01.148Z,9.58
2018-10-12T08:19:54.563Z,8.58
2018-10-12T08:24:47.891Z,8.30
2018-10-12T08:29:41.388Z,8.85
2018-10-12T08:34:34.578Z,8.60
2018-10-12T08:39:28.157Z,8.60
2018-10-12T08:44:21.395Z,8.45
2018-10-12T08:49:15.059Z,9.30
2018-10-12T08:54:09.040Z,8.88
2018-10-12T08:59:02.261Z,7.78
2018-10-12T09:03:55.592Z,7.75
2018-10-12T09:08:48.891Z,8.65
2018-10-12T09:13:42.268Z,8.05
2018-10-12T09:18:35.536Z,7.90
2018-10-12T09:23:28.976Z,7.28
2018-10-12T09:28:22.389Z,7.83
2018-10-12T09:33:15.563Z,7.37
2018-10-12T09:38:08.985Z,7.45
2018-10-12T09:43:02.657Z,7.58
2018-10-12T09:47:55.919Z,7.50
2018-10-12T09:52:49.261Z,7.83
2018-10-12T09:57:43.054Z,7.45
2018-10-12T10:02:42.059Z,7.58
2018-10-12T10:07:39.790Z,8.08
2018-10-12T10:12:33.784Z,8.00
2018-10-12T10:17:27.020Z,7.90
2018-10-12T10:22:20.402Z,7.90
2018-10-12T10:27:13.845Z,7.85
2018-10-12T10:32:07.195Z,7.85
2018-10-12T10:37:01.473Z,7.97
2018-10-12T10:41:55.103Z,7.72
2018-10-12T10:46:48.599Z,8.10
2018-10-12T10:51:42.535Z,7.70
2018-10-12T10:56:36.131Z,7.62
2018-10-12T11:01:29.336Z,7.47
2018-10-12T11:06:22.764Z,7.60
2018-10-12T11:11:16.020Z,8.00
2018-10-12T11:16:09.364Z,7.90
2018-10-12T11:21:02.548Z,7.42
2018-10-12T11:25:56.038Z,7.03
2018-10-12T11:30:49.308Z,7.45
2018-10-12T11:35:42.698Z,7.33
2018-10-12T11:40:35.951Z,7.97
2018-10-12T11:45:29.278Z,6.78
2018-10-12T11:50:23.677Z,7.92
2018-10-12T11:55:16.991Z,8.00
2018-10-12T12:00:10.871Z,9.88
2018-10-12T12:05:04.494Z,8.40
2018-10-12T12:09:57.693Z,8.80
2018-10-12T12:14:51.692Z,8.20
2018-10-12T12:19:45.005Z,7.78
2018-10-12T12:24:38.614Z,8.85
2018-10-12T12:29:31.904Z,8.28
2018-10-12T12:34:25.235Z,9.08
2018-10-12T12:39:18.439Z,9.35
2018-10-12T12:44:11.729Z,8.70
2018-10-12T12:49:05.754Z,8.00
2018-10-12T12:53:58.979Z,8.33
2018-10-12T12:58:53.597Z,10.08
2018-10-12T13:03:47.343Z,7.60
2018-10-12T13:08:41.903Z,8.23
2018-10-12T13:13:35.483Z,8.25
2018-10-12T13:18:28.928Z,6.90
2018-10-12T13:23:22.933Z,6.87
2018-10-12T13:28:17.709Z,7.72
2018-10-12T13:33:11.019Z,7.72
2018-10-12T13:38:04.382Z,7.35
2018-10-12T13:42:57.657Z,8.83
2018-10-12T13:47:51.769Z,8.10
2018-10-12T13:52:45.775Z,9.10
2018-10-12T13:57:39.073Z,8.73
2018-10-12T14:02:32.826Z,8.28
2018-10-12T14:07:26.214Z,9.55
2018-10-12T14:12:19.903Z,8.30
2018-10-12T14:17:13.627Z,8.05
2018-10-12T14:22:08.162Z,8.93
2018-10-12T14:27:01.616Z,8.73
2018-10-12T14:31:55.028Z,8.10
2018-10-12T14:36:48.360Z,9.08
2018-10-12T14:41:41.647Z,9.60
2018-10-12T14:46:35.258Z,8.93
2018-10-12T14:51:28.556Z,9.28
2018-10-12T14:56:21.919Z,10.88
2018-10-12T15:01:19.561Z,9.98
2018-10-12T15:06:13.128Z,10.55
2018-10-12T15:11:06.444Z,9.50
2018-10-12T15:16:00.297Z,10.58
2018-10-12T15:20:54.511Z,11.30
2018-10-12T15:25:47.980Z,10.25
2018-10-12T15:30:41.336Z,9.28
2018-10-12T15:35:34.711Z,10.48
2018-10-12T15:40:28.137Z,9.45
2018-10-12T15:45:22.094Z,9.40
2018-10-12T15:50:17.521Z,5.87
2018-10-12T15:55:13.030Z,9.13
2018-10-12T16:00:06.701Z,9.78
2018-10-12T16:05:00.610Z,6.67
2018-10-12T16:09:56.206Z,6.80
2018-10-12T16:14:49.685Z,5.58
2018-10-12T16:19:43.045Z,5.87
2018-10-12T16:24:36.589Z,6.08
2018-10-12T16:29:29.929Z,5.90
2018-10-12T16:34:23.487Z,7.33
2018-10-12T16:39:17.828Z,7.17
2018-10-12T16:44:11.366Z,6.70
2018-10-12T16:49:04.920Z,7.67
2018-10-12T16:53:58.822Z,7.92
2018-10-12T16:58:53.296Z,8.98
2018-10-12T17:03:46.909Z,8.65
2018-10-12T17:08:40.232Z,7.30
2018-10-12T17:13:33.701Z,6.90
2018-10-12T17:18:27.101Z,8.83
2018-10-12T17:23:20.591Z,7.03
2018-10-12T17:28:14.258Z,8.93
2018-10-12T17:33:07.918Z,8.10
2018-10-12T17:38:02.515Z,8.00
2018-10-12T17:42:56.100Z,7.40
2018-10-12T17:47:50.316Z,9.80
2018-10-12T17:52:44.219Z,7.95
2018-10-12T17:57:38.371Z,8.35
2018-10-12T18:02:32.144Z,25.12
2018-10-12T18:07:25.777Z,7.08
2018-10-12T18:12:19.553Z,7.03
2018-10-12T18:17:13.443Z,8.83
2018-10-12T18:22:06.977Z,8.38
2018-10-12T18:27:00.616Z,6.97
2018-10-12T18:31:54.941Z,9.55
2018-10-12T18:36:48.279Z,6.50
2018-10-12T18:41:42.838Z,6.08
2018-10-12T18:46:37.106Z,5.28
2018-10-12T18:51:30.763Z,8.80
2018-10-12T18:56:24.153Z,10.85
2018-10-12T19:01:18.144Z,6.17
2018-10-12T19:06:12.322Z,6.17
2018-10-12T19:11:06.049Z,6.97
2018-10-12T19:15:59.466Z,9.63
2018-10-12T19:20:55.213Z,7.85
2018-10-12T19:25:48.994Z,6.33
2018-10-12T19:30:42.958Z,6.70
2018-10-12T19:35:36.361Z,5.15
2018-10-12T19:40:31.046Z,5.87
2018-10-12T19:45:24.484Z,5.85
2018-10-12T19:50:18.241Z,5.78
2018-10-12T19:55:12.077Z,5.67
2018-10-12T20:00:05.883Z,5.15
2018-10-12T20:04:59.718Z,5.78
2018-10-12T20:09:53.396Z,5.50
2018-10-12T20:14:47.205Z,5.85
2018-10-12T20:19:40.871Z,5.85
2018-10-12T20:24:34.728Z,5.65
2018-10-12T20:29:28.087Z,6.08
2018-10-12T20:34:21.416Z,5.65
2018-10-12T20:39:15.345Z,5.62
2018-10-12T20:44:09.290Z,5.28
2018-10-12T20:49:02.678Z,5.65
2018-10-12T20:53:56.164Z,5.20
2018-10-12T20:58:49.789Z,4.90
2018-10-12T21:03:43.551Z,5.42
2018-10-12T21:08:36.986Z,5.45
2018-10-12T21:13:30.353Z,5.20
2018-10-12T21:18:24.330Z,5.90
2018-10-12T21:23:17.797Z,5.50
2018-10-12T21:28:11.136Z,6.28
2018-10-12T21:33:04.596Z,5.85
2018-10-12T21:37:59.270Z,6.22
2018-10-12T21:42:52.563Z,6.60
2018-10-12T21:47:45.971Z,6.75
2018-10-12T21:52:39.863Z,7.55
2018-10-12T21:57:33.233Z,6.92
2018-10-12T22:02:27.030Z,6.60
2018-10-12T22:07:21.194Z,6.53
2018-10-12T22:12:15.317Z,6.62
2018-10-12T22:17:08.886Z,6.80
2018-10-12T22:22:02.254Z,6.37
2018-10-12T22:26:55.619Z,6.92
2018-10-12T22:31:48.869Z,6.87
2018-10-12T22:36:42.549Z,6.08
2018-10-12T22:41:36.062Z,5.92
2018-10-12T22:46:29.374Z,6.62
2018-10-12T22:51:22.814Z,6.28
2018-10-12T22:56:16.121Z,6.83
2018-10-12T23:01:09.444Z,7.55
2018-10-12T23:06:02.887Z,6.53
2018-10-12T23:10:56.115Z,6.92
2018-10-12T23:15:49.473Z,6.60
2018-10-12T23:20:42.840Z,7.05
2018-10-12T23:25:36.211Z,7.05
2018-10-12T23:30:30.509Z,6.72
2018-10-12T23:35:24.289Z,5.72
2018-10-12T23:40:17.971Z,6.12
2018-10-12T23:45:11.365Z,5.75
2018-10-12T23:50:04.604Z,5.30
2018-10-12T23:54:57.897Z,5.72
2018-10-12T23:59:51.231Z,5.58
